createdAt,value
2022-11-26T00:00:51.505Z,88.11
2022-11-26T00:03:21.352Z,87.96
2022-11-26T00:05:51.887Z,87.84
2022-11-26T00:08:24.109Z,87.94
2022-11-26T00:10:54.316Z,88.32
2022-11-26T00:13:24.718Z,88.39
2022-11-26T00:15:53.450Z,88.38
2022-11-26T00:18:26.789Z,88.34
2022-11-26T00:20:57.379Z,88.52
2022-11-26T00:23:27.617Z,88.51
2022-11-26T00:25:58.250Z,88.48
2022-11-26T00:28:29.922Z,88.75
2022-11-26T00:31:01.241Z,88.71
2022-11-26T00:33:31.458Z,88.67
2022-11-26T00:36:03.827Z,88.98
2022-11-26T00:38:32.297Z,88.81
2022-11-26T00:41:00.542Z,88.52
2022-11-26T00:43:28.458Z,88.77
2022-11-26T00:45:56.452Z,88.67
2022-11-26T00:48:24.428Z,88.74
2022-11-26T00:50:53.721Z,88.90
2022-11-26T00:53:25.846Z,88.88
2022-11-26T00:55:53.672Z,89.15
2022-11-26T00:58:26.728Z,89.22
2022-11-26T01:00:55.595Z,89.08
2022-11-26T01:03:24.003Z,89.31
2022-11-26T01:05:55.572Z,89.13
2022-11-26T01:08:30.949Z,88.89
2022-11-26T01:10:58.878Z,89.30
2022-11-26T01:13:27.113Z,89.00
2022-11-26T01:15:55.711Z,89.35
2022-11-26T01:18:24.832Z,89.65
2022-11-26T01:20:54.112Z,89.47
2022-11-26T01:23:22.172Z,89.21
2022-11-26T01:25:50.099Z,89.18
2022-11-26T01:28:20.147Z,89.38
2022-11-26T01:30:48.154Z,88.76
2022-11-26T01:33:15.991Z,88.87
2022-11-26T01:35:44.046Z,88.87
2022-11-26T01:38:15.343Z,88.95
2022-11-26T01:41:04.137Z,89.05
2022-11-26T01:43:38.308Z,89.13
2022-11-26T01:46:15.097Z,88.60
2022-11-26T01:48:43.281Z,88.97
2022-11-26T01:51:11.724Z,88.94
2022-11-26T01:53:47.089Z,88.71
2022-11-26T01:56:23.321Z,88.40
2022-11-26T01:58:57.800Z,88.91
2022-11-26T02:01:26.045Z,89.05
2022-11-26T02:04:03.738Z,88.68
2022-11-26T02:06:33.924Z,88.32
2022-11-26T02:09:06.916Z,88.70
2022-11-26T02:11:35.020Z,88.45
2022-11-26T02:14:06.165Z,88.58
2022-11-26T02:16:57.495Z,88.55
2022-11-26T02:19:49.154Z,88.31
2022-11-26T02:22:35.219Z,88.62
2022-11-26T02:25:18.434Z,88.45
2022-11-26T02:28:02.361Z,88.48
2022-11-26T02:30:37.695Z,88.24
2022-11-26T02:33:12.532Z,88.58
2022-11-26T02:35:44.640Z,88.68
2022-11-26T02:38:16.741Z,88.47
2022-11-26T02:40:44.602Z,88.91
2022-11-26T02:43:14.530Z,88.69
2022-11-26T02:45:47.575Z,88.75
2022-11-26T02:48:21.544Z,88.57
2022-11-26T02:50:53.719Z,88.36
2022-11-26T02:53:24.695Z,88.21
2022-11-26T02:55:58.513Z,88.16
2022-11-26T02:58:26.373Z,88.13
2022-11-26T03:01:00.428Z,88.18
2022-11-26T03:03:33.195Z,88.54
2022-11-26T03:06:05.874Z,88.62
2022-11-26T03:08:34.394Z,88.11
2022-11-26T03:11:02.258Z,87.87
2022-11-26T03:13:30.199Z,87.96
2022-11-26T03:16:00.039Z,87.68
2022-11-26T03:18:28.087Z,87.74
2022-11-26T03:20:55.971Z,87.89
2022-11-26T03:23:23.843Z,87.93
2022-11-26T03:25:51.726Z,87.72
2022-11-26T03:28:19.550Z,87.10
2022-11-26T03:30:47.384Z,86.93
2022-11-26T03:33:16.649Z,86.87
2022-11-26T03:35:44.636Z,87.15
2022-11-26T03:38:12.467Z,87.17
2022-11-26T03:40:40.334Z,87.47
2022-11-26T03:43:08.146Z,87.85
2022-11-26T03:45:36.180Z,88.18
2022-11-26T03:48:04.132Z,88.38
2022-11-26T03:50:33.389Z,88.80
2022-11-26T03:53:01.240Z,89.02
2022-11-26T03:55:29.137Z,89.43
2022-11-26T03:57:56.943Z,89.71
2022-11-26T04:00:24.956Z,90.08
2022-11-26T04:02:52.870Z,90.35
2022-11-26T04:05:20.815Z,90.65
2022-11-26T04:07:50.175Z,90.48
2022-11-26T04:10:18.227Z,90.76
2022-11-26T04:12:46.082Z,91.21
2022-11-26T04:15:13.939Z,91.08
2022-11-26T04:17:41.904Z,91.25
2022-11-26T04:20:10.766Z,90.72
2022-11-26T04:22:38.727Z,90.60
2022-11-26T04:25:08.855Z,90.86
2022-11-26T04:27:36.821Z,90.42
2022-11-26T04:30:05.472Z,90.65
2022-11-26T04:32:33.319Z,90.79
2022-11-26T04:35:01.360Z,90.85
2022-11-26T04:37:29.228Z,90.89
2022-11-26T04:39:57.231Z,90.97
2022-11-26T04:42:26.517Z,91.54
2022-11-26T04:44:54.562Z,91.51
2022-11-26T04:47:22.614Z,91.58
2022-11-26T04:49:50.491Z,91.45
2022-11-26T04:52:18.684Z,91.42
2022-11-26T04:54:46.608Z,91.27
2022-11-26T04:57:15.603Z,91.42
2022-11-26T04:59:46.155Z,91.29
2022-11-26T05:02:14.077Z,91.13
2022-11-26T05:04:42.044Z,91.14
2022-11-26T05:07:09.974Z,90.58
2022-11-26T05:09:37.964Z,90.80
2022-11-26T05:12:06.199Z,90.74
2022-11-26T05:14:36.734Z,90.90
2022-11-26T05:17:06.295Z,90.83
2022-11-26T05:19:34.523Z,90.49
2022-11-26T05:22:02.437Z,90.33
2022-11-26T05:24:30.292Z,90.71
2022-11-26T05:26:58.178Z,90.18
2022-11-26T05:29:26.822Z,90.51
2022-11-26T05:31:54.794Z,90.28
2022-11-26T05:34:24.338Z,90.13
2022-11-26T05:36:52.293Z,90.47
2022-11-26T05:39:20.233Z,90.50
2022-11-26T05:41:48.133Z,90.39
2022-11-26T05:44:16.099Z,90.42
2022-11-26T05:46:44.553Z,90.28
2022-11-26T05:49:12.455Z,90.07
2022-11-26T05:51:41.921Z,89.93
2022-11-26T05:54:13.655Z,90.00
2022-11-26T05:56:42.048Z,90.18
2022-11-26T05:59:10.234Z,90.28
2022-11-26T06:01:38.409Z,90.46
2022-11-26T06:04:06.811Z,90.07
2022-11-26T06:06:35.200Z,90.36
2022-11-26T06:09:05.922Z,90.29
2022-11-26T06:11:34.237Z,90.31
2022-11-26T06:14:02.161Z,90.38
2022-11-26T06:16:30.120Z,90.24
2022-11-26T06:18:59.194Z,89.89
2022-11-26T06:21:27.090Z,90.39
2022-11-26T06:23:59.311Z,90.12
2022-11-26T06:26:29.223Z,90.00
2022-11-26T06:28:57.213Z,90.32
2022-11-26T06:31:25.123Z,90.20
2022-11-26T06:33:55.309Z,90.17
2022-11-26T06:36:23.916Z,90.45
2022-11-26T06:38:52.012Z,90.37
2022-11-26T06:41:23.107Z,90.42
2022-11-26T06:43:52.379Z,90.25
2022-11-26T06:46:20.288Z,90.34
2022-11-26T06:48:48.273Z,89.92
2022-11-26T06:51:17.287Z,90.02
2022-11-26T06:53:45.162Z,90.35
2022-11-26T06:56:18.424Z,89.98
2022-11-26T06:58:47.508Z,90.00
2022-11-26T07:01:19.762Z,90.11
2022-11-26T07:03:48.288Z,90.20
2022-11-26T07:06:18.044Z,89.99
2022-11-26T07:08:46.353Z,89.97
2022-11-26T07:11:14.802Z,90.04
2022-11-26T07:13:42.762Z,90.33
2022-11-26T07:16:11.295Z,90.14
2022-11-26T07:18:40.634Z,89.94
2022-11-26T07:21:10.732Z,90.18
2022-11-26T07:23:38.588Z,89.75
2022-11-26T07:26:08.382Z,90.40
2022-11-26T07:28:36.774Z,90.18
2022-11-26T07:31:11.537Z,90.55
2022-11-26T07:33:44.451Z,90.68
2022-11-26T07:36:16.975Z,90.82
2022-11-26T07:38:44.555Z,91.03
2022-11-26T07:41:13.874Z,90.99
2022-11-26T07:43:43.501Z,90.71
2022-11-26T07:46:13.301Z,90.86
2022-11-26T07:48:41.287Z,91.15
2022-11-26T07:51:17.945Z,91.38
2022-11-26T07:53:45.786Z,91.55
2022-11-26T07:56:13.596Z,91.18
2022-11-26T07:58:41.663Z,90.74
2022-11-26T08:01:11.391Z,90.99
2022-11-26T08:03:40.485Z,90.72
2022-11-26T08:06:11.835Z,90.79
2022-11-26T08:08:40.297Z,90.93
2022-11-26T08:11:14.653Z,90.76
2022-11-26T08:13:42.583Z,90.85
2022-11-26T08:16:10.633Z,90.38
2022-11-26T08:18:38.495Z,90.48
2022-11-26T08:21:06.449Z,90.65
2022-11-26T08:23:36.125Z,90.28
2022-11-26T08:26:22.687Z,89.87
2022-11-26T08:28:53.160Z,89.90
2022-11-26T08:31:21.252Z,89.92
2022-11-26T08:33:49.187Z,89.66
2022-11-26T08:36:16.969Z,89.51
2022-11-26T08:38:46.214Z,89.30
2022-11-26T08:41:14.770Z,89.37
2022-11-26T08:46:30.881Z,89.24
2022-11-26T08:48:59.152Z,89.29
2022-11-26T08:51:27.239Z,88.94
2022-11-26T08:53:56.591Z,88.80
2022-11-26T08:56:24.462Z,88.78
2022-11-26T08:58:52.470Z,88.45
2022-11-26T09:01:22.163Z,88.33
2022-11-26T09:03:50.967Z,88.57
2022-11-26T09:06:19.822Z,88.26
2022-11-26T09:09:01.858Z,88.19
2022-11-26T09:11:31.070Z,87.85
2022-11-26T09:14:14.419Z,87.56
2022-11-26T09:16:42.221Z,87.65
2022-11-26T09:19:11.431Z,87.88
2022-11-26T09:21:39.291Z,87.70
2022-11-26T09:24:07.703Z,87.21
2022-11-26T09:26:36.893Z,86.98
2022-11-26T09:29:05.407Z,86.73
2022-11-26T09:31:33.629Z,86.99
2022-11-26T09:34:02.624Z,86.77
2022-11-26T09:36:30.847Z,87.23
2022-11-26T09:38:59.698Z,86.99
2022-11-26T09:41:46.114Z,86.78
2022-11-26T09:44:30.162Z,86.78
2022-11-26T09:47:14.014Z,86.92
2022-11-26T09:49:50.783Z,86.72
2022-11-26T09:52:22.118Z,86.25
2022-11-26T09:54:52.708Z,86.11
2022-11-26T09:57:28.708Z,86.50
2022-11-26T09:59:57.438Z,85.52
2022-11-26T10:02:26.806Z,85.75
2022-11-26T10:04:54.817Z,85.70
2022-11-26T10:07:41.865Z,85.36
2022-11-26T10:10:17.553Z,85.14
2022-11-26T10:13:18.096Z,84.75
2022-11-26T10:15:55.100Z,84.85
2022-11-26T10:18:34.147Z,84.71
2022-11-26T10:21:13.601Z,84.16
2022-11-26T10:23:46.305Z,83.97
2022-11-26T10:26:17.800Z,83.52
2022-11-26T10:28:49.177Z,83.72
2022-11-26T10:31:22.010Z,82.95
2022-11-26T10:33:57.540Z,83.35
2022-11-26T10:36:28.405Z,83.36
2022-11-26T10:38:57.273Z,83.84
2022-11-26T10:41:27.424Z,83.26
2022-11-26T10:43:56.506Z,83.22
2022-11-26T10:46:35.468Z,82.44
2022-11-26T10:49:17.898Z,82.57
2022-11-26T10:51:49.232Z,82.10
2022-11-26T10:54:26.291Z,81.55
2022-11-26T10:56:54.992Z,81.44
2022-11-26T10:59:29.368Z,81.63
2022-11-26T11:02:02.986Z,81.70
2022-11-26T11:04:33.390Z,81.59
2022-11-26T11:07:01.173Z,81.51
2022-11-26T11:09:33.768Z,81.35
2022-11-26T11:12:20.788Z,81.85
2022-11-26T11:14:51.606Z,81.50
2022-11-26T11:17:31.471Z,81.56
2022-11-26T11:20:01.228Z,82.09
2022-11-26T11:22:29.266Z,81.83
2022-11-26T11:24:59.580Z,82.01
2022-11-26T11:27:34.020Z,82.04
2022-11-26T11:30:03.257Z,81.82
2022-11-26T11:32:35.645Z,81.99
2022-11-26T11:35:21.628Z,81.33
2022-11-26T11:37:50.606Z,81.64
2022-11-26T11:40:25.106Z,81.85
2022-11-26T11:42:56.494Z,81.15
2022-11-26T11:45:34.828Z,81.55
2022-11-26T11:48:16.896Z,81.47
2022-11-26T11:50:51.541Z,81.67
2022-11-26T11:53:34.443Z,81.24
2022-11-26T11:56:26.639Z,81.15
2022-11-26T11:59:19.365Z,80.49
2022-11-26T12:01:59.528Z,80.25
2022-11-26T12:04:58.675Z,80.22
2022-11-26T12:07:42.864Z,80.63
2022-11-26T12:10:15.647Z,80.56
2022-11-26T12:12:47.964Z,80.09
2022-11-26T12:15:26.241Z,79.86
2022-11-26T12:18:01.698Z,80.37
2022-11-26T12:20:34.919Z,80.43
2022-11-26T12:23:24.346Z,80.04
2022-11-26T12:25:57.933Z,79.73
2022-11-26T12:28:28.871Z,79.58
2022-11-26T12:31:02.417Z,79.37
2022-11-26T12:33:37.654Z,79.36
2022-11-26T12:36:13.780Z,79.78
2022-11-26T12:38:46.265Z,79.48
2022-11-26T12:41:17.927Z,79.26
2022-11-26T12:43:52.050Z,79.28
2022-11-26T12:46:24.396Z,78.72
2022-11-26T12:48:57.780Z,78.52
2022-11-26T12:51:34.537Z,78.75
2022-11-26T12:54:10.988Z,78.38
2022-11-26T12:56:44.820Z,78.21
2022-11-26T12:59:23.243Z,77.82
2022-11-26T13:01:51.799Z,77.89
2022-11-26T13:04:37.333Z,78.23
2022-11-26T13:07:18.932Z,78.45
2022-11-26T13:10:00.130Z,77.94
2022-11-26T13:12:39.815Z,78.32
2022-11-26T13:15:19.246Z,78.38
2022-11-26T13:17:50.567Z,78.23
2022-11-26T13:20:52.908Z,78.41
2022-11-26T13:23:34.077Z,78.53
2022-11-26T13:26:22.957Z,78.21
2022-11-26T13:29:05.397Z,78.17
2022-11-26T13:31:51.802Z,78.28
2022-11-26T13:34:31.775Z,78.66
2022-11-26T13:37:25.860Z,78.52
2022-11-26T13:40:30.611Z,77.84
2022-11-26T13:43:17.046Z,77.87
2022-11-26T13:46:08.375Z,77.46
2022-11-26T13:48:43.780Z,77.30
2022-11-26T13:51:20.559Z,77.19
2022-11-26T13:53:56.129Z,77.18
2022-11-26T13:56:28.114Z,76.95
2022-11-26T13:59:00.585Z,76.74
2022-11-26T14:01:29.680Z,76.85
2022-11-26T14:03:58.255Z,76.65
2022-11-26T14:06:28.037Z,76.62
2022-11-26T14:09:00.336Z,76.00
2022-11-26T14:11:58.251Z,75.54
2022-11-26T14:14:36.402Z,75.67
2022-11-26T14:17:22.530Z,75.38
2022-11-26T14:20:05.451Z,75.50
2022-11-26T14:22:34.802Z,75.47
2022-11-26T14:25:06.981Z,75.43
2022-11-26T14:27:36.417Z,75.30
2022-11-26T14:30:26.041Z,75.79
2022-11-26T14:33:15.018Z,75.95
2022-11-26T14:35:54.906Z,75.94
2022-11-26T14:38:25.431Z,75.52
2022-11-26T14:41:01.949Z,75.81
2022-11-26T14:43:30.471Z,76.09
2022-11-26T14:46:07.843Z,75.88
2022-11-26T14:48:38.278Z,75.85
2022-11-26T14:51:09.363Z,76.34
2022-11-26T14:53:41.370Z,76.07
2022-11-26T14:56:11.311Z,76.15
2022-11-26T14:58:43.167Z,76.50
2022-11-26T15:01:21.373Z,76.31
2022-11-26T15:03:58.235Z,76.19
2022-11-26T15:06:28.912Z,76.26
2022-11-26T15:09:14.498Z,76.22
2022-11-26T15:11:48.937Z,76.23
2022-11-26T15:14:21.923Z,76.29
2022-11-26T15:16:56.699Z,76.34
2022-11-26T15:19:25.230Z,76.27
2022-11-26T15:21:53.126Z,76.07
2022-11-26T15:24:21.320Z,76.29
2022-11-26T15:26:50.648Z,75.90
2022-11-26T15:29:30.998Z,76.20
2022-11-26T15:31:59.523Z,76.57
2022-11-26T15:34:29.357Z,76.48
2022-11-26T15:36:57.260Z,76.68
2022-11-26T15:39:27.300Z,76.44
2022-11-26T15:42:00.205Z,76.50
2022-11-26T15:44:30.336Z,76.29
2022-11-26T15:47:03.693Z,76.45
2022-11-26T15:49:36.696Z,76.23
2022-11-26T15:52:07.351Z,76.65
2022-11-26T15:55:04.476Z,76.50
2022-11-26T15:57:30.799Z,76.25
2022-11-26T16:00:01.953Z,76.53
2022-11-26T16:02:31.248Z,76.48
2022-11-26T16:05:00.404Z,76.04
2022-11-26T16:07:30.032Z,76.29
2022-11-26T16:10:22.052Z,76.32
2022-11-26T16:13:23.107Z,76.46
2022-11-26T16:15:55.885Z,76.68
2022-11-26T16:18:36.850Z,76.23
2022-11-26T16:21:07.540Z,75.99
2022-11-26T16:23:35.919Z,76.29
2022-11-26T16:26:17.528Z,76.35
2022-11-26T16:28:48.006Z,76.86
2022-11-26T16:31:17.312Z,76.68
2022-11-26T16:33:45.271Z,76.73
2022-11-26T16:36:19.532Z,76.32
2022-11-26T16:38:48.044Z,76.45
2022-11-26T16:41:17.431Z,76.77
2022-11-26T16:43:47.246Z,76.55
2022-11-26T16:46:17.021Z,76.45
2022-11-26T16:48:46.033Z,76.37
2022-11-26T16:51:14.054Z,76.71
2022-11-26T16:53:41.910Z,76.70
2022-11-26T16:56:19.258Z,76.47
2022-11-26T16:58:48.670Z,76.72
2022-11-26T17:01:16.487Z,77.02
2022-11-26T17:03:44.613Z,76.63
2022-11-26T17:06:14.812Z,77.12
2022-11-26T17:08:49.216Z,77.00
2022-11-26T17:11:18.266Z,77.06
2022-11-26T17:13:46.005Z,76.89
2022-11-26T17:16:17.910Z,76.83
2022-11-26T17:18:45.778Z,76.93
2022-11-26T17:21:14.011Z,77.10
2022-11-26T17:23:41.940Z,76.61
2022-11-26T17:26:17.801Z,77.05
2022-11-26T17:28:45.613Z,77.32
2022-11-26T17:31:13.432Z,77.25
2022-11-26T17:33:45.121Z,77.11
2022-11-26T17:36:18.050Z,77.79
2022-11-26T17:38:46.586Z,77.42
2022-11-26T17:41:15.765Z,77.86
2022-11-26T17:43:44.045Z,77.52
2022-11-26T17:46:16.188Z,77.67
2022-11-26T17:48:45.800Z,77.70
2022-11-26T17:51:14.774Z,77.94
2022-11-26T17:53:43.449Z,78.13
2022-11-26T17:56:18.114Z,78.34
2022-11-26T17:58:46.189Z,78.28
2022-11-26T18:01:14.874Z,78.27
2022-11-26T18:03:42.956Z,78.30
2022-11-26T18:06:16.660Z,78.60
2022-11-26T18:08:44.623Z,78.67
2022-11-26T18:11:12.952Z,78.67
2022-11-26T18:13:40.750Z,78.30
2022-11-26T18:16:08.687Z,78.59
2022-11-26T18:18:36.491Z,78.58
2022-11-26T18:21:04.308Z,78.74
2022-11-26T18:23:33.491Z,78.45
2022-11-26T18:26:01.863Z,78.85
2022-11-26T18:28:29.738Z,78.80
2022-11-26T18:30:58.459Z,79.08
2022-11-26T18:33:26.436Z,79.16
2022-11-26T18:35:54.223Z,79.05
2022-11-26T18:38:21.938Z,79.00
2022-11-26T18:41:01.096Z,79.18
2022-11-26T18:43:29.012Z,79.40
2022-11-26T18:45:57.221Z,78.95
2022-11-26T18:48:25.128Z,79.15
2022-11-26T18:50:57.423Z,79.15
2022-11-26T18:53:25.405Z,79.19
2022-11-26T18:55:53.598Z,79.43
2022-11-26T18:58:23.081Z,79.47
2022-11-26T19:00:51.726Z,79.74
2022-11-26T19:03:19.630Z,79.49
2022-11-26T19:05:50.446Z,79.51
2022-11-26T19:08:18.476Z,79.29
2022-11-26T19:10:46.732Z,79.43
2022-11-26T19:13:14.958Z,79.80
2022-11-26T19:15:45.839Z,79.74
2022-11-26T19:18:14.953Z,79.79
2022-11-26T19:20:48.685Z,79.78
2022-11-26T19:23:16.491Z,79.64
2022-11-26T19:25:45.570Z,79.66
2022-11-26T19:28:13.442Z,79.67
2022-11-26T19:30:41.275Z,79.67
2022-11-26T19:33:10.524Z,79.82
2022-11-26T19:35:40.180Z,79.88
2022-11-26T19:38:07.943Z,79.75
2022-11-26T19:40:35.679Z,79.89
2022-11-26T19:43:03.479Z,79.85
2022-11-26T19:45:31.261Z,80.12
2022-11-26T19:47:59.066Z,79.81
2022-11-26T19:50:28.234Z,80.22
2022-11-26T19:52:56.062Z,79.95
2022-11-26T19:55:23.868Z,79.96
2022-11-26T19:57:51.653Z,80.16
2022-11-26T20:00:19.810Z,80.29
2022-11-26T20:02:47.650Z,80.45
2022-11-26T20:05:15.423Z,80.12
2022-11-26T20:07:45.330Z,80.36
2022-11-26T20:10:14.773Z,80.12
2022-11-26T20:12:42.572Z,80.30
2022-11-26T20:15:11.364Z,80.40
2022-11-26T20:17:39.235Z,80.23
2022-11-26T20:20:08.350Z,80.40
2022-11-26T20:22:37.442Z,80.39
2022-11-26T20:25:09.070Z,80.58
2022-11-26T20:27:36.810Z,81.01
2022-11-26T20:30:04.969Z,80.33
2022-11-26T20:32:32.743Z,80.82
2022-11-26T20:35:00.521Z,80.50
2022-11-26T20:37:28.296Z,80.67
2022-11-26T20:39:56.015Z,80.39
2022-11-26T20:42:25.541Z,80.16
2022-11-26T20:44:53.285Z,80.54
2022-11-26T20:47:21.682Z,80.38
2022-11-26T20:49:49.426Z,80.22
2022-11-26T20:52:18.221Z,80.14
2022-11-26T20:54:49.525Z,79.98
2022-11-26T20:57:22.128Z,80.04
2022-11-26T20:59:51.356Z,79.86
2022-11-26T21:02:19.179Z,79.63
2022-11-26T21:04:46.915Z,79.90
2022-11-26T21:07:14.701Z,79.23
2022-11-26T21:09:42.579Z,79.68
2022-11-26T21:12:10.336Z,79.23
2022-11-26T21:14:38.058Z,79.38
2022-11-26T21:17:07.413Z,79.11
2022-11-26T21:19:35.268Z,79.03
2022-11-26T21:22:03.092Z,79.04
2022-11-26T21:24:30.861Z,78.71
2022-11-26T21:26:58.609Z,78.86
2022-11-26T21:29:26.517Z,78.94
2022-11-26T21:31:54.683Z,78.74
2022-11-26T21:34:23.964Z,78.87
2022-11-26T21:36:51.949Z,79.09
2022-11-26T21:39:19.770Z,78.85
2022-11-26T21:41:47.532Z,78.57
2022-11-26T21:44:15.388Z,78.35
2022-11-26T21:46:43.253Z,78.32
2022-11-26T21:49:11.111Z,78.94
2022-11-26T21:51:40.925Z,78.75
2022-11-26T21:54:10.365Z,78.62
2022-11-26T21:56:38.369Z,78.11
2022-11-26T21:59:06.098Z,78.03
2022-11-26T22:01:35.923Z,78.50
2022-11-26T22:04:08.081Z,78.38
2022-11-26T22:06:36.029Z,78.21
2022-11-26T22:09:06.240Z,78.60
2022-11-26T22:11:36.842Z,78.58
2022-11-26T22:14:05.446Z,78.50
2022-11-26T22:16:33.604Z,78.36
2022-11-26T22:19:02.775Z,78.65
2022-11-26T22:21:32.633Z,78.80
2022-11-26T22:24:01.863Z,78.89
2022-11-26T22:26:32.644Z,78.55
2022-11-26T22:29:01.114Z,78.69
2022-11-26T22:31:30.754Z,78.81
2022-11-26T22:34:00.885Z,79.13
2022-11-26T22:36:29.014Z,78.82
2022-11-26T22:38:56.927Z,78.68
2022-11-26T22:41:24.652Z,78.98
2022-11-26T22:43:53.858Z,78.68
2022-11-26T22:46:22.915Z,78.73
2022-11-26T22:48:52.093Z,78.63
2022-11-26T22:51:19.915Z,78.72
2022-11-26T22:53:51.102Z,78.95
2022-11-26T22:56:19.666Z,79.14
2022-11-26T22:58:47.646Z,78.93
2022-11-26T23:01:21.093Z,78.81
2022-11-26T23:03:49.455Z,78.77
2022-11-26T23:06:18.258Z,79.14
2022-11-26T23:08:47.095Z,79.03
2022-11-26T23:11:16.708Z,78.72
2022-11-26T23:13:46.103Z,79.12
2022-11-26T23:16:14.175Z,79.30
2022-11-26T23:18:43.666Z,79.17
2022-11-26T23:21:13.397Z,79.00
2022-11-26T23:23:42.486Z,79.17
2022-11-26T23:26:13.081Z,79.21
2022-11-26T23:28:40.788Z,79.02
2022-11-26T23:31:13.600Z,78.92
2022-11-26T23:33:41.404Z,78.86
2022-11-26T23:36:11.166Z,79.02
2022-11-26T23:38:39.108Z,78.92
2022-11-26T23:41:07.749Z,78.88
2022-11-26T23:43:37.241Z,78.63
2022-11-26T23:46:07.229Z,78.88
2022-11-26T23:48:35.293Z,79.02
2022-11-26T23:51:07.464Z,78.90
2022-11-26T23:53:37.533Z,78.68
2022-11-26T23:56:07.088Z,78.47
2022-11-26T23:58:35.516Z,78.38
